This is the latest recevied weather packets stored in our database for station/object N4AN. If no packets are shown the sender has not sent any weather packets the latest 10 day(s).
| Time | Temp. | Humidity | Pressure | Rain* | Wind** | Luminosity | Snow |
|---|---|---|---|---|---|---|---|
| 1788005655 | 27.22° C | 81% | 1011.9 hPa | 1.52 mm | - | - | - |
| 1788005355 | 27.22° C | 81% | 1011.7 hPa | 3.3 mm | - | - | - |
| 1788005055 | 27.22° C | 81% | 1011.6 hPa | 14.48 mm | - | - | - |
| 1788004753 | 27.22° C | 79% | 1011.9 hPa | 3.81 mm | - | - | - |
| 1788004453 | 27.78° C | 79% | 1011.8 hPa | 20.07 mm | - | - | - |
| 1788004152 | 27.78° C | 76% | 1011.7 hPa | 47.75 mm | - | - | - |
| 1788003851 | 30.56° C | 76% | 1011.3 hPa | 0 mm | - | - | - |
| 1788003551 | 30.56° C | 77% | 1010.8 hPa | 0 mm | - | - | - |
| 1788003251 | 28.89° C | 81% | 1011 hPa | 0 mm | - | - | - |
| 1788002951 | 28.89° C | 80% | 1010.9 hPa | 0 mm | - | - | - |
| 1788002650 | 28.89° C | 79% | 1011 hPa | 0 mm | - | - | - |
| 1788002350 | 28.89° C | 78% | 1010.9 hPa | 1.02 mm | - | - | - |
| 1788002050 | 29.44° C | 79% | 1010.9 hPa | 1.52 mm | - | - | - |
| 1788001749 | 28.33° C | 80% | 1010.8 hPa | 3.3 mm | - | - | - |
| 1788001449 | 28.33° C | 78% | 1011 hPa | 106.68 mm | - | - | - |
| 1788001149 | 31.11° C | 72% | 1010.9 hPa | 197.61 mm | - | - | - |
| 1788000849 | 32.22° C | 73% | 1010.8 hPa | 0 mm | - | - | - |
| 1788000548 | 31.67° C | 74% | 1010.7 hPa | 0 mm | - | - | - |
| 1788000246 | 31.67° C | 74% | 1010.6 hPa | 0 mm | - | - | - |
| 1787999946 | 31.11° C | 75% | 1010.6 hPa | 0 mm | - | - | - |
| 1787999646 | 31.67° C | 74% | 1010.6 hPa | 0 mm | - | - | - |
| 1787999345 | 31.67° C | 74% | 1010.5 hPa | 0 mm | - | - | - |
| 1787999043 | 31.11° C | 75% | 1010.4 hPa | 0 mm | - | - | - |
| 1787998743 | 31.11° C | 76% | 1010.2 hPa | 0 mm | - | - | - |
| 1787998442 | 31.11° C | 77% | 1010.3 hPa | 0 mm | - | - | - |
* Rain latest hour (hover to see other rain measurements)
** Current wind speed in m/s (hover to see current wind gust speed)